Time;durP1;ratioP1;P1;durP2;ratioP2;P2;SDS_P1;SDS_P2;PMS_P1;PMS_P2;Temp;Humidity;BMP_temperature;BMP_pressure;BME280_temperature;BME280_humidity;BME280_pressure;Samples;Min_cycle;Max_cycle;Signal;HPM_P1;HPM_P2
2021/11/27 00:00:14;;;;;;;0.67;0.40;;;7.60;99.90;;;;;;4972490;28;20685;-68
2021/11/27 00:02:42;;;;;;;0.60;0.50;;;7.60;99.90;;;;;;4972383;28;20280;-73
2021/11/27 00:05:10;;;;;;;1.83;0.60;;;7.60;99.90;;;;;;4972730;28;20273;-67
2021/11/27 00:07:38;;;;;;;1.27;0.60;;;7.60;99.90;;;;;;4972694;28;20687;-75
2021/11/27 00:10:07;;;;;;;0.90;0.50;;;7.60;99.90;;;;;;4972293;28;20729;-68
2021/11/27 00:12:35;;;;;;;0.70;0.57;;;7.40;99.90;;;;;;4972618;28;20206;-75
2021/11/27 00:15:06;;;;;;;1.27;0.67;;;7.30;99.90;;;;;;4972684;28;20213;-68
2021/11/27 00:17:33;;;;;;;1.27;0.40;;;7.20;99.90;;;;;;4972219;28;20216;-68
2021/11/27 00:20:00;;;;;;;2.83;0.83;;;7.20;99.90;;;;;;4972844;28;20266;-69
2021/11/27 00:22:27;;;;;;;0.70;0.63;;;7.20;99.90;;;;;;4971945;28;20634;-68
2021/11/27 00:24:54;;;;;;;2.07;0.80;;;7.30;99.90;;;;;;4972137;28;20253;-68
2021/11/27 00:27:21;;;;;;;3.20;0.50;;;7.30;99.90;;;;;;4971967;28;20260;-68
2021/11/27 00:29:48;;;;;;;0.93;0.37;;;7.30;99.90;;;;;;4972158;28;20264;-67
2021/11/27 00:32:17;;;;;;;1.50;0.60;;;7.20;99.90;;;;;;4972602;28;20213;-69
2021/11/27 00:34:44;;;;;;;1.07;0.33;;;7.20;99.90;;;;;;4972477;28;20216;-68
2021/11/27 00:37:11;;;;;;;0.70;0.40;;;7.20;99.90;;;;;;4972120;28;20284;-68
2021/11/27 00:39:38;;;;;;;1.57;0.77;;;7.20;99.90;;;;;;4971261;28;20693;-69
2021/11/27 00:42:05;;;;;;;0.97;0.80;;;7.00;99.90;;;;;;4972319;28;20260;-67
2021/11/27 00:44:32;;;;;;;1.17;0.43;;;7.00;99.90;;;;;;4971433;28;20209;-68
2021/11/27 00:46:59;;;;;;;1.67;0.87;;;6.90;99.90;;;;;;4972278;28;20265;-77
2021/11/27 00:49:27;;;;;;;1.07;0.43;;;6.90;99.90;;;;;;4971835;28;20218;-68
2021/11/27 00:51:54;;;;;;;0.70;0.50;;;7.00;99.90;;;;;;4971790;28;20209;-68
2021/11/27 00:54:21;;;;;;;2.87;0.73;;;7.10;99.90;;;;;;4971184;28;20264;-73
2021/11/27 00:56:49;;;;;;;0.77;0.57;;;7.20;99.90;;;;;;4971552;28;20626;-69
2021/11/27 00:59:16;;;;;;;0.83;0.33;;;7.30;99.90;;;;;;4972457;28;20210;-67
2021/11/27 01:01:43;;;;;;;1.23;1.03;;;7.40;99.90;;;;;;4971544;28;20561;-67
2021/11/27 01:04:10;;;;;;;0.73;0.50;;;7.40;99.90;;;;;;4972052;28;20358;-68
2021/11/27 01:06:39;;;;;;;0.70;0.60;;;7.50;99.90;;;;;;4971323;28;20261;-68
2021/11/27 01:09:09;;;;;;;0.70;0.70;;;7.50;99.90;;;;;;4958741;28;20210;-68
2021/11/27 01:11:40;;;;;;;1.13;0.40;;;7.40;99.90;;;;;;4971227;28;20210;-71
2021/11/27 01:14:11;;;;;;;0.70;0.30;;;7.30;99.90;;;;;;4971489;28;20772;-68
2021/11/27 01:16:41;;;;;;;1.87;0.40;;;7.50;99.90;;;;;;4971255;28;20252;-68
2021/11/27 01:19:10;;;;;;;3.77;2.50;;;7.60;99.90;;;;;;4971675;28;20209;-74
2021/11/27 01:21:40;;;;;;;1.50;1.00;;;7.60;99.90;;;;;;4971171;28;20220;-68
2021/11/27 01:24:11;;;;;;;0.70;0.50;;;7.70;99.90;;;;;;4971639;28;20260;-68
2021/11/27 01:26:39;;;;;;;1.80;0.87;;;7.70;99.90;;;;;;4971308;28;20217;-68
2021/11/27 01:29:07;;;;;;;2.93;0.70;;;7.80;99.90;;;;;;4971420;28;20205;-68
2021/11/27 01:31:35;;;;;;;2.33;0.73;;;7.80;99.90;;;;;;4971079;28;20206;-69
2021/11/27 01:34:02;;;;;;;3.53;0.47;;;7.80;99.90;;;;;;4971810;28;20214;-68
2021/11/27 01:36:29;;;;;;;1.70;0.90;;;7.80;99.90;;;;;;4970606;28;20233;-69
2021/11/27 01:38:57;;;;;;;1.77;0.90;;;7.80;99.90;;;;;;4971678;28;20209;-68
2021/11/27 01:41:25;;;;;;;3.37;0.60;;;7.80;99.90;;;;;;4971113;28;20210;-68
2021/11/27 01:43:52;;;;;;;3.57;0.50;;;7.80;99.90;;;;;;4971414;28;20736;-68
2021/11/27 01:46:19;;;;;;;1.70;0.87;;;7.90;1.00;;;;;;4971254;28;20280;-68
2021/11/27 01:48:47;;;;;;;1.13;0.40;;;7.80;1.00;;;;;;4971744;28;20264;-73
2021/11/27 01:51:17;;;;;;;0.70;0.60;;;7.80;1.00;;;;;;4971558;28;20268;-67
2021/11/27 01:53:48;;;;;;;1.70;0.60;;;7.80;1.00;;;;;;4971682;28;20205;-68
2021/11/27 01:56:19;;;;;;;1.70;0.40;;;7.90;1.00;;;;;;4971468;28;20223;-68
2021/11/27 01:58:47;;;;;;;1.70;0.60;;;7.80;1.00;;;;;;4971425;28;20259;-69
2021/11/27 02:01:16;;;;;;;1.87;0.57;;;7.90;1.00;;;;;;4971570;28;20634;-69
2021/11/27 02:03:44;;;;;;;2.00;0.63;;;7.90;1.00;;;;;;4970882;28;20210;-68
2021/11/27 02:06:12;;;;;;;0.50;0.40;;;7.90;1.00;;;;;;4972399;28;20213;-68
2021/11/27 02:08:40;;;;;;;0.50;0.40;;;7.90;1.00;;;;;;4974565;28;20213;-68
2021/11/27 02:11:11;;;;;;;0.77;0.50;;;7.90;1.00;;;;;;4974861;28;20220;-75
2021/11/27 02:13:39;;;;;;;2.73;0.43;;;7.90;1.00;;;;;;4974469;28;20214;-70
2021/11/27 02:16:07;;;;;;;2.27;0.30;;;7.90;1.00;;;;;;4973001;28;20316;-69
2021/11/27 02:18:34;;;;;;;1.27;0.50;;;7.90;1.00;;;;;;4974209;28;20260;-73
2021/11/27 02:21:05;;;;;;;1.03;0.57;;;7.90;1.00;;;;;;4974538;28;20593;-67
2021/11/27 02:23:33;;;;;;;2.10;0.40;;;7.90;1.00;;;;;;4974299;28;20209;-68
2021/11/27 02:26:02;;;;;;;2.33;0.60;;;7.80;1.00;;;;;;4974945;28;20272;-68
2021/11/27 02:28:30;;;;;;;1.30;0.57;;;7.80;1.00;;;;;;4974130;28;20702;-80
2021/11/27 02:30:57;;;;;;;2.53;0.40;;;7.80;1.00;;;;;;4974318;28;20214;-79
2021/11/27 02:33:26;;;;;;;1.17;0.60;;;7.80;1.00;;;;;;4973448;28;20264;-68
2021/11/27 02:35:53;;;;;;;1.53;0.57;;;7.80;1.00;;;;;;4974393;28;20748;-68
2021/11/27 02:38:21;;;;;;;1.80;0.40;;;7.70;1.00;;;;;;4974000;28;20214;-68
2021/11/27 02:40:48;;;;;;;0.73;0.40;;;7.70;1.00;;;;;;4974655;28;20260;-68
2021/11/27 02:43:16;;;;;;;5.63;1.80;;;7.80;1.00;;;;;;4974265;28;20268;-79
2021/11/27 02:45:43;;;;;;;1.97;0.93;;;7.70;1.00;;;;;;4974504;28;20202;-78
2021/11/27 02:48:10;;;;;;;0.77;0.77;;;7.80;1.00;;;;;;4974008;28;20221;-68
2021/11/27 02:50:38;;;;;;;1.60;0.70;;;7.70;1.00;;;;;;4973633;28;20213;-71
2021/11/27 02:53:05;;;;;;;1.80;0.50;;;7.80;1.00;;;;;;4974358;28;20264;-68
2021/11/27 02:55:34;;;;;;;3.03;0.90;;;7.70;1.00;;;;;;4973682;28;20568;-68
2021/11/27 02:58:01;;;;;;;1.57;0.47;;;7.80;1.00;;;;;;4973979;28;20774;-68
2021/11/27 03:00:28;;;;;;;1.07;0.40;;;7.70;1.00;;;;;;4973727;28;20235;-78
2021/11/27 03:02:56;;;;;;;0.73;0.40;;;7.70;1.00;;;;;;4973688;28;20670;-68
2021/11/27 03:05:23;;;;;;;2.20;0.70;;;7.70;1.00;;;;;;4973712;28;20260;-68
2021/11/27 03:07:51;;;;;;;0.73;0.30;;;7.80;1.00;;;;;;4960536;28;20572;-68
2021/11/27 03:10:20;;;;;;;1.20;0.43;;;7.80;1.00;;;;;;4973736;28;20283;-68
2021/11/27 03:12:49;;;;;;;2.10;0.50;;;7.80;1.00;;;;;;4973757;28;20206;-68
2021/11/27 03:15:18;;;;;;;3.43;0.90;;;7.70;1.00;;;;;;4974273;28;20209;-79
2021/11/27 03:17:47;;;;;;;1.73;0.57;;;7.70;1.00;;;;;;4973239;28;20233;-78
2021/11/27 03:20:17;;;;;;;1.73;0.30;;;7.70;1.00;;;;;;4974130;28;20264;-83
2021/11/27 03:22:44;;;;;;;1.30;0.40;;;7.80;1.00;;;;;;4973288;28;20681;-72
2021/11/27 03:25:13;;;;;;;1.90;0.47;;;7.80;1.00;;;;;;4973871;28;20272;-77
2021/11/27 03:27:41;;;;;;;2.13;0.70;;;7.70;1.00;;;;;;4973201;28;20272;-79
2021/11/27 03:30:13;;;;;;;0.77;0.40;;;7.70;1.00;;;;;;4973729;28;20221;-67
2021/11/27 03:32:40;;;;;;;2.30;0.30;;;7.60;1.00;;;;;;4972724;28;20209;-78
2021/11/27 03:35:08;;;;;;;1.70;0.87;;;7.50;1.00;;;;;;4973202;28;20681;-67
2021/11/27 03:37:35;;;;;;;0.20;0.10;;;7.30;1.00;;;;;;4973068;28;20237;-79
2021/11/27 03:40:03;;;;;;;0.40;0.20;;;7.30;1.00;;;;;;4972966;28;20635;-78
2021/11/27 03:42:32;;;;;;;0.83;0.77;;;7.30;1.00;;;;;;4973120;28;20247;-77
2021/11/27 03:45:00;;;;;;;1.03;0.30;;;7.20;1.00;;;;;;4973238;28;20214;-67
2021/11/27 03:47:28;;;;;;;2.00;0.37;;;7.20;1.00;;;;;;4972567;28;20221;-72
2021/11/27 03:49:55;;;;;;;1.13;0.40;;;7.10;1.00;;;;;;4972715;28;20213;-67
2021/11/27 03:52:23;;;;;;;2.07;1.27;;;7.00;1.00;;;;;;4972678;28;20670;-67
2021/11/27 03:54:51;;;;;;;0.40;0.30;;;7.10;1.00;;;;;;4973189;28;20221;-74
2021/11/27 03:57:18;;;;;;;2.10;0.20;;;7.00;1.00;;;;;;4973125;28;20229;-67
2021/11/27 03:59:45;;;;;;;4.33;0.60;;;7.00;1.00;;;;;;4973305;28;20260;-72
2021/11/27 04:02:12;;;;;;;1.80;0.70;;;7.00;1.00;;;;;;4972621;28;20634;-68
2021/11/27 04:04:42;;;;;;;1.93;0.50;;;7.00;1.00;;;;;;4972260;28;20221;-67
2021/11/27 04:07:10;;;;;;;1.27;0.50;;;7.00;1.00;;;;;;4972743;28;20209;-79
2021/11/27 04:09:37;;;;;;;1.40;0.30;;;6.90;1.00;;;;;;4972631;28;20288;-78
2021/11/27 04:12:04;;;;;;;1.20;0.50;;;6.90;1.00;;;;;;4972638;28;20205;-76
2021/11/27 04:14:31;;;;;;;1.83;0.50;;;7.00;1.00;;;;;;4972198;28;20732;-79
2021/11/27 04:16:58;;;;;;;1.37;0.60;;;7.00;1.00;;;;;;4971947;28;20233;-67
2021/11/27 04:19:25;;;;;;;1.73;0.50;;;6.90;1.00;;;;;;4972542;28;20284;-77
2021/11/27 04:21:54;;;;;;;3.50;0.60;;;6.90;1.00;;;;;;4972701;28;20273;-67
2021/11/27 04:24:21;;;;;;;2.67;0.93;;;6.90;1.00;;;;;;4971613;28;20644;-67
2021/11/27 04:26:48;;;;;;;5.67;0.63;;;6.90;1.00;;;;;;4972452;28;20213;-68
2021/11/27 04:29:15;;;;;;;2.97;0.53;;;6.90;1.00;;;;;;4972216;28;20252;-67
2021/11/27 04:31:42;;;;;;;2.33;0.57;;;6.90;1.00;;;;;;4971805;28;20209;-78
2021/11/27 04:34:09;;;;;;;2.23;0.43;;;6.90;1.00;;;;;;4972357;28;20673;-67
2021/11/27 04:36:36;;;;;;;2.23;2.00;;;6.80;1.00;;;;;;4971754;28;20217;-78
2021/11/27 04:39:05;;;;;;;1.30;0.40;;;6.80;1.00;;;;;;4972159;28;20210;-77
2021/11/27 04:41:32;;;;;;;5.60;0.80;;;6.80;1.00;;;;;;4971657;28;20209;-67
2021/11/27 04:43:59;;;;;;;5.30;1.00;;;6.80;1.00;;;;;;4972080;28;20209;-77
2021/11/27 04:46:26;;;;;;;2.43;0.63;;;6.70;1.00;;;;;;4971612;28;20217;-67
2021/11/27 04:48:53;;;;;;;3.03;1.07;;;6.80;1.00;;;;;;4971929;28;20225;-67
2021/11/27 04:51:20;;;;;;;1.20;1.00;;;6.80;1.00;;;;;;4971618;28;20243;-68
2021/11/27 04:53:47;;;;;;;6.10;0.93;;;6.70;1.00;;;;;;4971940;28;20661;-68
2021/11/27 04:56:17;;;;;;;2.10;0.80;;;6.70;1.00;;;;;;4972147;28;20290;-67
2021/11/27 04:58:44;;;;;;;1.43;0.50;;;6.70;1.00;;;;;;4971512;28;20324;-68
2021/11/27 05:01:11;;;;;;;1.40;0.60;;;6.70;1.00;;;;;;4972198;28;20260;-74
2021/11/27 05:03:38;;;;;;;0.67;0.30;;;6.70;1.00;;;;;;4971640;28;20209;-78
2021/11/27 05:06:05;;;;;;;1.20;0.50;;;6.70;1.00;;;;;;4972168;28;20292;-68
2021/11/27 05:08:32;;;;;;;1.73;0.90;;;6.60;1.00;;;;;;4971515;28;20213;-67
2021/11/27 05:10:59;;;;;;;1.40;1.17;;;6.50;1.00;;;;;;4971942;28;20205;-67
2021/11/27 05:13:27;;;;;;;2.00;0.70;;;6.50;1.00;;;;;;4971092;28;20277;-78
2021/11/27 05:15:54;;;;;;;3.57;1.20;;;6.50;1.00;;;;;;4985487;28;20288;-68
2021/11/27 05:18:21;;;;;;;4.90;0.63;;;6.50;1.00;;;;;;4971463;28;20660;-68
2021/11/27 05:20:48;;;;;;;2.23;0.43;;;6.50;1.00;;;;;;4971684;28;20633;-67
2021/11/27 05:23:15;;;;;;;2.57;0.40;;;6.40;1.00;;;;;;4971952;28;20264;-68
2021/11/27 05:25:42;;;;;;;3.43;1.00;;;6.30;1.00;;;;;;4971805;28;20209;-74
2021/11/27 05:28:09;;;;;;;2.50;0.60;;;6.30;1.00;;;;;;4971463;28;20260;-79
2021/11/27 05:30:38;;;;;;;2.60;0.93;;;6.40;1.00;;;;;;4971484;28;20209;-68
2021/11/27 05:33:10;;;;;;;2.13;0.87;;;6.40;1.00;;;;;;4971572;28;20259;-68
2021/11/27 05:35:37;;;;;;;5.43;1.07;;;6.40;1.00;;;;;;4971183;28;20232;-68
2021/11/27 05:38:05;;;;;;;7.37;1.37;;;6.40;1.00;;;;;;4971257;28;20233;-78
2021/11/27 05:40:33;;;;;;;3.63;0.67;;;6.40;1.00;;;;;;4972759;28;20692;-68
2021/11/27 05:43:00;;;;;;;2.87;0.63;;;6.50;1.00;;;;;;4975087;28;20744;-79
2021/11/27 05:45:29;;;;;;;3.40;1.00;;;6.50;1.00;;;;;;4974959;28;20665;-79
2021/11/27 05:47:59;;;;;;;4.27;0.80;;;6.50;1.00;;;;;;4975337;28;20259;-68
2021/11/27 05:50:26;;;;;;;2.50;0.90;;;6.50;1.00;;;;;;4974505;28;20256;-80
2021/11/27 05:52:54;;;;;;;6.73;1.27;;;6.50;1.00;;;;;;4975006;28;20232;-78
2021/11/27 05:55:22;;;;;;;5.03;0.90;;;6.50;1.00;;;;;;4974493;28;20209;-75
2021/11/27 05:57:50;;;;;;;4.43;0.60;;;6.50;1.00;;;;;;4974873;28;20321;-78
2021/11/27 06:00:18;;;;;;;5.80;0.97;;;6.50;1.00;;;;;;4975248;28;20221;-72
2021/11/27 06:02:45;;;;;;;4.70;1.10;;;6.50;1.00;;;;;;4974932;28;20201;-68
2021/11/27 06:05:13;;;;;;;1.83;1.13;;;6.40;1.00;;;;;;4974987;28;20264;-68
2021/11/27 06:07:40;;;;;;;2.80;0.93;;;6.50;1.00;;;;;;4974391;28;20635;-68
2021/11/27 06:10:09;;;;;;;2.07;0.83;;;6.50;1.00;;;;;;4974895;28;20656;-67
2021/11/27 06:12:36;;;;;;;6.87;1.30;;;6.50;1.00;;;;;;4974127;28;20630;-69
2021/11/27 06:15:04;;;;;;;3.63;1.00;;;6.50;1.00;;;;;;4974794;28;20260;-67
2021/11/27 06:17:31;;;;;;;2.00;0.90;;;6.50;1.00;;;;;;4974027;28;20260;-67
2021/11/27 06:19:58;;;;;;;5.07;1.30;;;6.50;1.00;;;;;;4974628;28;20217;-67
2021/11/27 06:22:27;;;;;;;5.50;2.80;;;6.50;1.00;;;;;;4974288;28;20264;-71
2021/11/27 06:24:54;;;;;;;5.87;2.17;;;6.60;1.00;;;;;;4974540;28;20209;-67
2021/11/27 06:27:21;;;;;;;4.80;1.40;;;6.60;1.00;;;;;;4973985;28;20780;-68
2021/11/27 06:29:49;;;;;;;3.03;0.70;;;6.50;1.00;;;;;;4974347;28;20206;-68
2021/11/27 06:32:21;;;;;;;4.30;0.67;;;6.40;1.00;;;;;;4974783;28;20624;-67
2021/11/27 06:34:49;;;;;;;3.67;1.20;;;6.40;1.00;;;;;;4974432;28;20213;-68
2021/11/27 06:37:16;;;;;;;3.50;1.57;;;6.30;1.00;;;;;;4974922;28;20214;-68
2021/11/27 06:39:44;;;;;;;1.77;0.40;;;6.30;1.00;;;;;;4974346;28;20214;-68
2021/11/27 06:42:11;;;;;;;2.10;1.00;;;6.30;1.00;;;;;;4974124;28;20213;-68
2021/11/27 06:44:40;;;;;;;3.73;0.73;;;6.30;1.00;;;;;;4973668;28;20214;-68
2021/11/27 06:47:07;;;;;;;1.27;0.70;;;6.20;1.00;;;;;;4974231;28;20248;-74
2021/11/27 06:49:34;;;;;;;2.00;0.90;;;6.20;1.00;;;;;;4974141;28;20272;-68
2021/11/27 06:52:01;;;;;;;4.63;2.53;;;6.10;1.00;;;;;;4973098;28;20209;-74
2021/11/27 06:54:28;;;;;;;4.10;2.07;;;6.10;1.00;;;;;;4973475;28;20210;-79
2021/11/27 06:56:56;;;;;;;3.63;1.77;;;6.10;1.00;;;;;;4974222;28;20256;-78
2021/11/27 06:59:23;;;;;;;1.50;0.90;;;6.00;1.00;;;;;;4973600;28;20768;-69
2021/11/27 07:01:50;;;;;;;7.73;0.80;;;6.00;1.00;;;;;;4973664;28;20269;-67
2021/11/27 07:04:18;;;;;;;1.47;0.40;;;6.10;1.00;;;;;;4974051;28;20213;-68
2021/11/27 07:06:45;;;;;;;4.37;1.17;;;6.20;1.00;;;;;;4974217;28;20212;-68
2021/11/27 07:09:12;;;;;;;0.83;0.60;;;6.20;1.00;;;;;;4973879;28;20221;-68
2021/11/27 07:11:39;;;;;;;1.83;0.53;;;6.30;1.00;;;;;;4973285;28;20280;-68
2021/11/27 07:14:08;;;;;;;4.93;0.50;;;6.20;1.00;;;;;;4973639;28;20628;-68
2021/11/27 07:16:35;;;;;;;2.43;0.43;;;6.30;1.00;;;;;;4973339;28;20577;-68
2021/11/27 07:19:02;;;;;;;3.93;0.70;;;6.30;1.00;;;;;;4973530;28;20237;-68
2021/11/27 07:21:29;;;;;;;2.23;1.07;;;6.30;1.00;;;;;;4973230;28;20217;-79
2021/11/27 07:23:56;;;;;;;1.23;0.93;;;6.40;1.00;;;;;;4973378;28;20206;-67
2021/11/27 07:26:23;;;;;;;2.57;1.67;;;6.40;1.00;;;;;;4973104;28;20220;-67
2021/11/27 07:28:51;;;;;;;1.60;1.17;;;6.40;1.00;;;;;;4973786;28;20209;-79
2021/11/27 07:31:20;;;;;;;5.77;1.20;;;6.20;1.00;;;;;;4973454;28;20645;-68
2021/11/27 07:33:47;;;;;;;2.50;1.20;;;6.20;1.00;;;;;;4973406;28;20206;-68
2021/11/27 07:36:14;;;;;;;3.83;2.30;;;6.20;1.00;;;;;;4973666;28;20209;-69
2021/11/27 07:38:41;;;;;;;4.63;3.23;;;6.10;1.00;;;;;;4972850;28;20303;-69
2021/11/27 07:41:08;;;;;;;4.30;2.57;;;6.20;1.00;;;;;;4973189;28;20205;-80
2021/11/27 07:43:37;;;;;;;3.33;2.60;;;6.20;1.00;;;;;;4972800;28;20210;-67
2021/11/27 07:46:04;;;;;;;2.83;1.13;;;6.20;1.00;;;;;;4973405;28;20209;-75
2021/11/27 07:48:32;;;;;;;4.07;0.80;;;6.20;1.00;;;;;;4972379;28;20222;-78
2021/11/27 07:51:00;;;;;;;2.30;0.70;;;6.20;1.00;;;;;;4973056;28;20225;-67
2021/11/27 07:53:27;;;;;;;3.07;0.97;;;6.40;1.00;;;;;;4972440;28;20678;-67
2021/11/27 07:55:54;;;;;;;3.57;1.20;;;6.30;1.00;;;;;;4973095;28;20218;-67
2021/11/27 07:58:22;;;;;;;1.93;0.93;;;6.20;1.00;;;;;;4972480;28;20272;-71
2021/11/27 08:00:49;;;;;;;3.30;1.43;;;6.20;1.00;;;;;;4973115;28;20205;-68
2021/11/27 08:03:16;;;;;;;3.87;1.40;;;6.30;1.00;;;;;;4972264;28;20209;-68
2021/11/27 08:05:44;;;;;;;3.73;1.43;;;6.30;1.00;;;;;;4972552;28;20280;-78
2021/11/27 08:08:11;;;;;;;2.17;1.00;;;6.30;1.00;;;;;;4972491;28;20653;-70
2021/11/27 08:10:38;;;;;;;3.87;1.00;;;6.40;1.00;;;;;;4972149;28;20662;-79
2021/11/27 08:13:05;;;;;;;1.80;1.13;;;6.40;1.00;;;;;;4972892;28;20213;-67
2021/11/27 08:15:32;;;;;;;3.60;1.50;;;6.50;1.00;;;;;;4972126;28;20260;-68
2021/11/27 08:17:59;;;;;;;2.43;0.80;;;6.70;1.00;;;;;;4972585;28;20288;-78
2021/11/27 08:20:26;;;;;;;4.57;0.97;;;6.70;1.00;;;;;;4972001;28;20209;-78
2021/11/27 08:22:55;;;;;;;3.87;1.10;;;6.70;1.00;;;;;;4972159;28;20264;-68
2021/11/27 08:25:22;;;;;;;1.10;0.93;;;6.60;1.00;;;;;;4972278;28;20210;-68
2021/11/27 08:27:49;;;;;;;3.13;0.90;;;6.50;1.00;;;;;;4972480;28;20287;-68
2021/11/27 08:30:16;;;;;;;1.83;1.37;;;6.60;1.00;;;;;;4972608;28;20265;-78
2021/11/27 08:32:48;;;;;;;2.47;1.10;;;6.70;1.00;;;;;;4972684;28;20206;-78
2021/11/27 08:35:15;;;;;;;5.47;1.23;;;6.70;1.00;;;;;;4972548;28;20297;-70
2021/11/27 08:37:43;;;;;;;3.00;1.87;;;6.70;1.00;;;;;;4972113;28;20221;-68
2021/11/27 08:40:13;;;;;;;2.17;0.80;;;6.70;1.00;;;;;;4972166;28;20245;-79
2021/11/27 08:42:42;;;;;;;2.43;0.93;;;6.60;1.00;;;;;;4971786;28;20747;-78
2021/11/27 08:45:10;;;;;;;3.50;1.37;;;6.60;1.00;;;;;;4972060;28;20283;-68
2021/11/27 08:47:37;;;;;;;2.13;1.27;;;6.60;1.00;;;;;;4971719;28;20221;-77
2021/11/27 08:50:06;;;;;;;5.33;2.20;;;6.60;1.00;;;;;;4971801;28;20217;-68
2021/11/27 08:52:33;;;;;;;2.30;0.90;;;6.60;1.00;;;;;;4971806;28;20638;-68
2021/11/27 08:55:00;;;;;;;6.83;1.70;;;6.50;1.00;;;;;;4972028;28;20214;-79
2021/11/27 08:57:28;;;;;;;3.50;2.27;;;6.40;1.00;;;;;;4971578;28;20209;-79
2021/11/27 08:59:55;;;;;;;3.97;1.17;;;6.40;1.00;;;;;;4971781;28;20233;-67
2021/11/27 09:02:22;;;;;;;6.43;1.73;;;6.40;1.00;;;;;;4958078;28;20206;-73
2021/11/27 09:04:50;;;;;;;3.23;1.80;;;6.50;1.00;;;;;;4971654;28;20607;-68
2021/11/27 09:07:18;;;;;;;12.83;2.90;;;6.50;1.00;;;;;;4971830;28;20261;-68
2021/11/27 09:09:46;;;;;;;7.30;1.93;;;6.40;1.00;;;;;;4972441;28;20209;-67
2021/11/27 09:12:14;;;;;;;1.87;1.20;;;6.40;1.00;;;;;;4972135;28;20232;-68
2021/11/27 09:14:43;;;;;;;2.83;1.23;;;6.30;1.00;;;;;;4971226;28;20329;-68
2021/11/27 09:17:10;;;;;;;2.67;0.90;;;6.40;1.00;;;;;;4971383;28;20633;-67
2021/11/27 09:19:37;;;;;;;4.50;1.40;;;6.30;1.00;;;;;;4971361;28;20236;-79
2021/11/27 09:22:04;;;;;;;1.10;0.73;;;6.20;1.00;;;;;;4971722;28;20209;-67
2021/11/27 09:24:32;;;;;;;1.37;0.80;;;6.20;1.00;;;;;;4971307;28;20267;-67
2021/11/27 09:26:59;;;;;;;2.87;0.87;;;6.20;1.00;;;;;;4971898;28;20245;-78
2021/11/27 09:29:26;;;;;;;2.63;0.70;;;6.20;1.00;;;;;;4971148;28;20209;-77
2021/11/27 09:31:55;;;;;;;2.37;0.60;;;6.20;1.00;;;;;;4971597;28;20209;-68
2021/11/27 09:34:22;;;;;;;3.67;1.03;;;6.20;1.00;;;;;;4971307;28;20266;-69
2021/11/27 09:36:49;;;;;;;2.83;0.37;;;6.20;1.00;;;;;;4971383;28;20236;-76
2021/11/27 09:39:17;;;;;;;0.90;0.73;;;6.20;1.00;;;;;;4971928;28;20652;-79
2021/11/27 09:41:46;;;;;;;4.83;0.57;;;6.30;1.00;;;;;;4971506;28;20213;-68
2021/11/27 09:44:14;;;;;;;0.67;0.30;;;6.20;1.00;;;;;;4971883;28;20284;-69
2021/11/27 09:46:42;;;;;;;2.93;0.43;;;5.90;99.90;;;;;;4971157;28;20221;-68
2021/11/27 09:49:12;;;;;;;2.00;0.60;;;5.80;1.00;;;;;;4971181;28;20748;-68
2021/11/27 09:51:40;;;;;;;0.93;0.43;;;5.80;99.90;;;;;;4971089;28;20232;-68
2021/11/27 09:54:09;;;;;;;0.67;0.50;;;5.70;99.90;;;;;;4971676;28;20272;-78
2021/11/27 09:56:36;;;;;;;0.30;0.20;;;5.70;1.00;;;;;;4970873;28;20209;-73
2021/11/27 09:59:03;;;;;;;0.63;0.30;;;6.00;1.00;;;;;;4971655;28;20237;-72
2021/11/27 10:01:32;;;;;;;0.30;0.23;;;6.30;99.90;;;;;;4970999;28;20685;-81
2021/11/27 10:04:02;;;;;;;0.33;0.33;;;6.50;99.90;;;;;;4970851;28;20748;-79
2021/11/27 10:06:34;;;;;;;2.80;0.90;;;6.80;99.90;;;;;;4971019;28;20213;-78
2021/11/27 10:09:02;;;;;;;3.03;0.80;;;7.70;99.90;;;;;;4971115;28;20214;-80
2021/11/27 10:11:29;;;;;;;2.43;0.50;;;7.80;99.90;;;;;;4971050;28;20213;-68
2021/11/27 10:13:56;;;;;;;2.93;0.90;;;7.60;99.90;;;;;;4971105;28;20201;-78
2021/11/27 10:16:23;;;;;;;2.40;1.37;;;7.40;99.90;;;;;;4970947;28;20205;-69
2021/11/27 10:19:08;;;;;;;1.37;0.80;;;7.50;99.90;;;;;;4970922;28;20240;-77
2021/11/27 10:21:37;;;;;;;2.50;0.63;;;7.50;99.90;;;;;;4970813;28;20210;-68
2021/11/27 10:24:19;;;;;;;3.03;0.90;;;7.70;99.90;;;;;;4970854;28;20682;-81
2021/11/27 10:26:46;;;;;;;2.17;0.80;;;7.40;99.90;;;;;;4959143;28;20264;-75
2021/11/27 10:29:22;;;;;;;1.67;0.50;;;7.00;99.90;;;;;;4974950;28;20210;-68
2021/11/27 10:31:51;;;;;;;4.10;1.30;;;6.90;99.90;;;;;;4974572;28;20208;-68
2021/11/27 10:34:22;;;;;;;1.40;1.00;;;6.70;99.90;;;;;;4974552;28;20222;-69
2021/11/27 10:36:52;;;;;;;1.70;0.87;;;6.80;99.90;;;;;;4974462;28;20213;-79
2021/11/27 10:39:19;;;;;;;4.60;1.37;;;7.00;99.90;;;;;;4974448;28;20288;-69
2021/11/27 10:41:57;;;;;;;3.13;0.80;;;7.00;99.90;;;;;;4974398;28;20743;-74
2021/11/27 10:44:29;;;;;;;1.07;0.70;;;6.80;99.90;;;;;;4974145;28;20217;-79
2021/11/27 10:47:09;;;;;;;0.93;0.77;;;7.20;99.90;;;;;;4973532;28;20202;-68
2021/11/27 10:49:37;;;;;;;2.07;0.60;;;7.60;99.90;;;;;;4974017;28;20205;-80
2021/11/27 10:52:13;;;;;;;3.33;0.80;;;7.40;99.90;;;;;;4973973;28;20744;-78
2021/11/27 10:54:44;;;;;;;2.83;0.67;;;7.20;99.90;;;;;;4973720;28;20633;-81
2021/11/27 10:57:28;;;;;;;2.47;1.17;;;7.10;99.90;;;;;;4973834;28;20759;-68
2021/11/27 10:59:56;;;;;;;2.20;0.80;;;7.20;99.90;;;;;;4974333;28;20284;-80
2021/11/27 11:02:26;;;;;;;2.27;0.70;;;7.30;99.90;;;;;;4973556;28;20252;-68
2021/11/27 11:05:10;;;;;;;2.77;1.20;;;7.70;99.90;;;;;;4974030;28;20265;-79
2021/11/27 11:07:39;;;;;;;1.20;0.60;;;7.90;99.90;;;;;;4961174;28;20724;-82
2021/11/27 11:10:19;;;;;;;0.50;0.40;;;7.70;99.90;;;;;;4974191;28;20209;-79
2021/11/27 11:12:50;;;;;;;2.57;0.70;;;7.40;99.90;;;;;;4962489;28;20205;-79
2021/11/27 11:15:23;;;;;;;1.33;0.73;;;7.20;99.90;;;;;;4973749;28;20210;-68
2021/11/27 11:17:52;;;;;;;1.27;0.70;;;7.20;99.90;;;;;;4973638;28;20212;-81
2021/11/27 11:20:22;;;;;;;3.07;0.90;;;7.30;99.90;;;;;;4973863;28;20307;-69
2021/11/27 11:23:04;;;;;;;3.00;1.20;;;7.70;99.90;;;;;;4960418;28;20674;-68
2021/11/27 11:25:33;;;;;;;3.60;1.87;;;8.20;99.90;;;;;;4973516;28;20220;-85
2021/11/27 11:28:12;;;;;;;1.53;0.43;;;8.30;99.90;;;;;;4973866;28;20256;-69
2021/11/27 11:30:40;;;;;;;1.20;0.50;;;8.10;99.90;;;;;;4973025;28;20564;-83
2021/11/27 11:33:08;;;;;;;0.83;0.60;;;7.60;99.90;;;;;;4973534;28;20297;-81
2021/11/27 11:35:36;;;;;;;0.90;0.40;;;7.90;99.90;;;;;;4973323;28;20206;-82
2021/11/27 11:38:08;;;;;;;1.97;0.90;;;8.10;99.90;;;;;;4973302;28;20213;-68
2021/11/27 11:40:35;;;;;;;1.57;0.67;;;7.80;99.90;;;;;;4972945;28;20232;-78
2021/11/27 11:43:02;;;;;;;1.60;1.50;;;7.80;99.90;;;;;;4972985;28;20211;-68
2021/11/27 11:45:29;;;;;;;0.87;0.50;;;8.00;99.90;;;;;;4972911;28;20261;-71
2021/11/27 11:47:57;;;;;;;0.83;0.67;;;7.80;99.90;;;;;;4973260;28;20365;-67
2021/11/27 11:50:27;;;;;;;1.03;0.70;;;7.90;99.90;;;;;;4972716;28;20264;-68
2021/11/27 11:53:02;;;;;;;1.07;0.50;;;7.90;99.90;;;;;;4972989;28;20268;-81
2021/11/27 11:55:31;;;;;;;0.87;0.43;;;8.10;99.90;;;;;;4972743;28;20568;-68
2021/11/27 11:58:01;;;;;;;1.60;0.43;;;8.00;99.90;;;;;;4973074;28;20677;-81
2021/11/27 12:00:31;;;;;;;3.10;0.80;;;8.30;99.90;;;;;;4972430;28;20237;-71
2021/11/27 12:03:06;;;;;;;1.53;0.43;;;8.10;99.90;;;;;;4972977;28;20216;-83
2021/11/27 12:05:34;;;;;;;4.30;0.87;;;8.00;99.90;;;;;;4972338;28;20634;-78
2021/11/27 12:08:04;;;;;;;2.53;0.50;;;8.00;99.90;;;;;;4973063;28;20300;-67
2021/11/27 12:10:40;;;;;;;1.43;0.53;;;7.90;99.90;;;;;;4972452;28;20300;-68
2021/11/27 12:13:32;;;;;;;1.73;0.60;;;7.90;99.90;;;;;;4972879;28;20741;-76
2021/11/27 12:16:16;;;;;;;3.73;0.70;;;8.00;99.90;;;;;;4970438;28;20220;-80
2021/11/27 12:19:09;;;;;;;1.13;0.50;;;8.20;99.90;;;;;;4972334;28;20712;-68
2021/11/27 12:21:36;;;;;;;1.63;0.70;;;8.20;99.90;;;;;;4972355;28;20252;-67
2021/11/27 12:24:03;;;;;;;3.10;0.80;;;8.10;99.90;;;;;;4972302;28;20801;-65
2021/11/27 12:26:32;;;;;;;1.87;0.37;;;8.00;99.90;;;;;;4971928;28;20681;-65
2021/11/27 12:29:15;;;;;;;1.87;0.97;;;7.90;99.90;;;;;;4972525;28;20221;-79
2021/11/27 12:31:51;;;;;;;2.77;0.50;;;7.90;99.90;;;;;;4972271;28;20288;-67
2021/11/27 12:34:43;;;;;;;1.43;0.50;;;8.00;99.90;;;;;;4972301;28;20639;-72
2021/11/27 12:37:26;;;;;;;1.20;0.53;;;7.80;99.90;;;;;;4961721;28;20221;-79
2021/11/27 12:39:54;;;;;;;2.23;0.67;;;7.70;99.90;;;;;;4971944;28;20260;-81
2021/11/27 12:42:36;;;;;;;4.33;0.93;;;7.70;99.90;;;;;;4971948;28;20252;-78
2021/11/27 12:45:06;;;;;;;0.73;0.30;;;7.80;99.90;;;;;;4972168;28;20640;-67
2021/11/27 12:47:38;;;;;;;5.47;1.37;;;7.90;99.90;;;;;;4971606;28;20755;-68
2021/11/27 12:50:10;;;;;;;1.67;0.90;;;8.00;99.90;;;;;;4971325;28;20729;-67
2021/11/27 12:52:42;;;;;;;3.30;0.80;;;8.00;99.90;;;;;;4971999;28;20214;-68
2021/11/27 12:55:40;;;;;;;4.20;1.13;;;8.00;99.90;;;;;;4972031;28;20265;-81
2021/11/27 12:58:31;;;;;;;2.60;0.70;;;8.00;99.90;;;;;;4971839;28;20217;-67
2021/11/27 13:00:58;;;;;;;0.93;0.70;;;8.10;99.90;;;;;;4960872;28;20230;-68
2021/11/27 13:03:25;;;;;;;2.00;0.47;;;8.10;99.90;;;;;;4971463;28;20209;-71
2021/11/27 13:05:52;;;;;;;1.97;0.77;;;8.10;99.90;;;;;;4971927;28;20201;-67
2021/11/27 13:08:39;;;;;;;4.57;1.33;;;8.20;99.90;;;;;;4971390;28;20237;-68
2021/11/27 13:11:23;;;;;;;1.13;0.77;;;8.20;99.90;;;;;;4960214;28;20233;-68